Time,TemperatureF,DewpointF,PressureIn,WindDirection,WindDirectionDegrees,WindSpeedMPH,WindSpeedGustMPH,Humidity,HourlyPrecipIn,Conditions,Clouds,dailyrainin,SoftwareType,DateUTC
2013-02-14 00:00:00,19.4,16.0,30.59,West,268,0.0,-999.0,87,-99.99,,,0.00,weatherlink.com 1.10,2013-02-14 07:00:00,
2013-02-14 00:15:00,19.2,16.0,30.57,West,268,0.0,-999.0,87,-99.99,,,0.00,weatherlink.com 1.10,2013-02-14 07:15:00,
2013-02-14 00:30:00,19.1,16.0,30.57,West,268,0.0,-999.0,87,-99.99,,,0.00,weatherlink.com 1.10,2013-02-14 07:30:00,
2013-02-14 00:45:00,19.2,16.0,30.57,West,268,0.0,-999.0,87,-99.99,,,0.00,weatherlink.com 1.10,2013-02-14 07:45:00,
2013-02-14 01:00:00,18.9,16.0,30.57,West,268,0.0,-999.0,87,-99.99,,,0.00,weatherlink.com 1.10,2013-02-14 08:00:00,
2013-02-14 01:15:00,18.6,15.0,30.54,West,268,0.0,-999.0,86,-99.99,,,0.00,weatherlink.com 1.10,2013-02-14 08:15:00,
2013-02-14 01:30:00,18.6,15.0,30.54,West,268,0.0,-999.0,86,-99.99,,,0.00,weatherlink.com 1.10,2013-02-14 08:30:00,
2013-02-14 01:45:00,18.3,15.0,30.54,West,268,0.0,-999.0,86,-99.99,,,0.00,weatherlink.com 1.10,2013-02-14 08:45:00,
2013-02-14 02:00:00,18.0,15.0,30.54,West,268,1.0,-999.0,86,-99.99,,,0.00,weatherlink.com 1.10,2013-02-14 09:00:00,
2013-02-14 02:14:00,18.8,15.0,30.53,West,268,0.0,-999.0,83,-99.99,,,0.00,weatherlink.com 1.10,2013-02-14 09:14:00,
2013-02-14 02:30:00,18.1,14.0,30.54,West,268,0.0,-999.0,84,-99.99,,,0.00,weatherlink.com 1.10,2013-02-14 09:30:00,
2013-02-14 02:44:00,17.8,14.0,30.54,West,268,0.0,-999.0,84,-99.99,,,0.00,weatherlink.com 1.10,2013-02-14 09:44:00,
2013-02-14 02:59:00,17.7,14.0,30.53,West,268,0.0,-999.0,84,-99.99,,,0.00,weatherlink.com 1.10,2013-02-14 09:59:00,
2013-02-14 03:14:00,17.5,14.0,30.49,West,268,0.0,-999.0,84,-99.99,,,0.00,weatherlink.com 1.10,2013-02-14 10:14:00,
2013-02-14 03:30:00,17.3,13.0,30.49,West,268,1.0,-999.0,84,-99.99,,,0.00,weatherlink.com 1.10,2013-02-14 10:30:00,
2013-02-14 03:45:00,18.4,13.0,30.48,West,268,0.0,-999.0,78,-99.99,,,0.00,weatherlink.com 1.10,2013-02-14 10:45:00,
2013-02-14 03:59:00,18.0,12.0,30.49,West,268,0.0,-999.0,78,-99.99,,,0.00,weatherlink.com 1.10,2013-02-14 10:59:00,
2013-02-14 04:14:00,16.9,12.0,30.55,West,268,0.0,-999.0,80,-99.99,,,0.00,weatherlink.com 1.10,2013-02-14 11:14:00,
2013-02-14 04:29:00,16.1,11.0,30.56,West,268,0.0,-999.0,81,-99.99,,,0.00,weatherlink.com 1.10,2013-02-14 11:29:00,
2013-02-14 04:45:00,16.5,11.0,30.58,West,268,0.0,-999.0,79,-99.99,,,0.00,weatherlink.com 1.10,2013-02-14 11:45:00,
2013-02-14 04:59:00,16.5,11.0,30.56,West,268,0.0,-999.0,79,-99.99,,,0.00,weatherlink.com 1.10,2013-02-14 11:59:00,
2013-02-14 05:14:00,16.7,11.0,30.60,West,268,0.0,-999.0,78,-99.99,,,0.00,weatherlink.com 1.10,2013-02-14 12:14:00,
2013-02-14 05:29:00,16.1,10.0,30.60,West,268,0.0,-999.0,78,-99.99,,,0.00,weatherlink.com 1.10,2013-02-14 12:29:00,
2013-02-14 05:44:00,15.9,11.0,30.60,West,268,0.0,-999.0,79,-99.99,,,0.00,weatherlink.com 1.10,2013-02-14 12:44:00,
2013-02-14 05:59:00,15.2,10.0,30.60,West,268,0.0,-999.0,80,-99.99,,,0.00,weatherlink.com 1.10,2013-02-14 12:59:00,
2013-02-14 06:14:00,15.2,10.0,30.64,West,268,0.0,-999.0,80,-99.99,,,0.00,weatherlink.com 1.10,2013-02-14 13:14:00,
2013-02-14 06:30:00,15.1,10.0,30.64,West,268,0.0,-999.0,81,-99.99,,,0.00,weatherlink.com 1.10,2013-02-14 13:30:00,
2013-02-14 06:45:00,14.6,10.0,30.64,West,268,0.0,-999.0,81,-99.99,,,0.00,weatherlink.com 1.10,2013-02-14 13:45:00,
2013-02-14 06:59:00,14.1,10.0,30.65,West,268,0.0,-999.0,82,-99.99,,,0.00,weatherlink.com 1.10,2013-02-14 13:59:00,
2013-02-14 07:14:00,14.6,10.0,30.66,West,268,0.0,-999.0,82,-99.99,,,0.00,weatherlink.com 1.10,2013-02-14 14:14:00,
2013-02-14 07:30:00,14.6,10.0,30.65,West,268,1.0,-999.0,82,-99.99,,,0.00,weatherlink.com 1.10,2013-02-14 14:30:00,
2013-02-14 07:44:00,17.0,12.0,30.65,West,268,0.0,-999.0,81,-99.99,,,0.00,weatherlink.com 1.10,2013-02-14 14:44:00,
2013-02-14 07:59:00,19.9,13.0,30.64,West,268,0.0,-999.0,74,-99.99,,,0.00,weatherlink.com 1.10,2013-02-14 14:59:00,
2013-02-14 08:14:00,21.8,12.0,30.62,West,268,0.0,-999.0,66,-99.99,,,0.00,weatherlink.com 1.10,2013-02-14 15:14:00,
2013-02-14 08:29:00,22.5,12.0,30.61,West,268,0.0,-999.0,63,-99.99,,,0.00,weatherlink.com 1.10,2013-02-14 15:29:00,
2013-02-14 08:44:00,23.2,11.0,30.61,West,266,1.0,-999.0,61,-99.99,,,0.01,weatherlink.com 1.10,2013-02-14 15:44:00,
2013-02-14 09:00:00,24.2,11.0,30.61,West,266,1.0,-999.0,57,-99.99,,,0.01,weatherlink.com 1.10,2013-02-14 16:00:00,
2013-02-14 09:15:00,25.4,12.0,30.61,West,266,2.0,-999.0,58,-99.99,,,0.01,weatherlink.com 1.10,2013-02-14 16:15:00,
2013-02-14 09:30:00,27.2,12.0,30.59,SW,227,0.0,-999.0,54,-99.99,,,0.01,weatherlink.com 1.10,2013-02-14 16:30:00,
2013-02-14 09:45:00,28.1,12.0,30.57,SW,223,0.0,-999.0,51,-99.99,,,0.01,weatherlink.com 1.10,2013-02-14 16:45:00,
2013-02-14 10:00:00,28.1,12.0,30.58,ESE,112,1.0,-999.0,52,-99.99,,,0.01,weatherlink.com 1.10,2013-02-14 17:00:00,
2013-02-14 10:15:00,28.5,14.0,30.57,East,90,0.0,-999.0,54,-99.99,,,0.01,weatherlink.com 1.10,2013-02-14 17:15:00,
2013-02-14 10:30:00,28.8,15.0,30.58,SE,129,1.0,-999.0,57,-99.99,,,0.01,weatherlink.com 1.10,2013-02-14 17:30:00,
2013-02-14 10:45:00,29.7,16.0,30.58,SE,141,0.0,-999.0,58,-99.99,,,0.01,weatherlink.com 1.10,2013-02-14 17:45:00,
2013-02-14 11:00:00,29.3,16.0,30.56,WSW,239,1.0,-999.0,58,-99.99,,,0.01,weatherlink.com 1.10,2013-02-14 18:00:00,
2013-02-14 11:15:00,30.6,16.0,30.58,South,190,0.0,-999.0,56,-99.99,,,0.01,weatherlink.com 1.10,2013-02-14 18:15:00,
2013-02-14 11:30:00,32.7,17.0,30.56,South,175,1.0,-999.0,53,-99.99,,,0.01,weatherlink.com 1.10,2013-02-14 18:30:00,
2013-02-14 11:45:00,34.3,18.0,30.54,SSE,153,0.0,-999.0,52,-99.99,,,0.01,weatherlink.com 1.10,2013-02-14 18:45:00,
2013-02-14 12:00:00,34.7,18.0,30.54,ESE,115,1.0,-999.0,51,-99.99,,,0.01,weatherlink.com 1.10,2013-02-14 19:00:00,
2013-02-14 12:15:00,34.0,17.0,30.52,SE,143,1.0,-999.0,50,-99.99,,,0.01,weatherlink.com 1.10,2013-02-14 19:15:00,
2013-02-14 12:30:00,36.6,18.0,30.53,SSE,158,2.0,-999.0,48,-99.99,,,0.01,weatherlink.com 1.10,2013-02-14 19:30:00,
2013-02-14 12:45:00,36.6,18.0,30.49,SSW,193,2.0,-999.0,48,-99.99,,,0.01,weatherlink.com 1.10,2013-02-14 19:45:00,
2013-02-14 13:00:00,36.9,19.0,30.49,South,182,2.0,-999.0,48,-99.99,,,0.01,weatherlink.com 1.10,2013-02-14 20:00:00,
2013-02-14 13:15:00,37.5,19.0,30.50,South,177,0.0,-999.0,48,-99.99,,,0.01,weatherlink.com 1.10,2013-02-14 20:15:00,
2013-02-14 13:30:00,39.6,20.0,30.48,SE,136,0.0,-999.0,46,-99.99,,,0.01,weatherlink.com 1.10,2013-02-14 20:30:00,
2013-02-14 13:45:00,38.8,19.0,30.46,ESE,110,2.0,-999.0,46,-99.99,,,0.01,weatherlink.com 1.10,2013-02-14 20:45:00,
2013-02-14 14:00:00,39.6,20.0,30.48,ESE,117,0.0,-999.0,45,-99.99,,,0.01,weatherlink.com 1.10,2013-02-14 21:00:00,
2013-02-14 14:15:00,41.9,19.0,30.46,ESE,105,1.0,-999.0,40,-99.99,,,0.01,weatherlink.com 1.10,2013-02-14 21:15:00,
2013-02-14 14:30:00,40.6,18.0,30.45,SSE,165,0.0,-999.0,40,-99.99,,,0.01,weatherlink.com 1.10,2013-02-14 21:30:00,
2013-02-14 14:45:00,40.9,17.0,30.47,SSE,152,1.0,-999.0,38,-99.99,,,0.01,weatherlink.com 1.10,2013-02-14 21:45:00,
2013-02-14 15:00:00,39.6,15.0,30.47,SSE,162,3.0,-999.0,36,-99.99,,,0.01,weatherlink.com 1.10,2013-02-14 22:00:00,
2013-02-14 15:15:00,42.2,10.0,30.48,SSE,163,1.0,-999.0,27,-99.99,,,0.01,weatherlink.com 1.10,2013-02-14 22:15:00,
2013-02-14 15:30:00,43.3,13.0,30.47,ENE,64,0.0,-999.0,29,-99.99,,,0.01,weatherlink.com 1.10,2013-02-14 22:30:00,
2013-02-14 15:45:00,46.1,17.0,30.45,SE,134,0.0,-999.0,31,-99.99,,,0.01,weatherlink.com 1.10,2013-02-14 22:45:00,
2013-02-14 16:00:00,42.2,13.0,30.43,SSE,155,1.0,-999.0,30,-99.99,,,0.01,weatherlink.com 1.10,2013-02-14 23:00:00,
2013-02-14 16:15:00,38.2,17.0,30.49,SSW,204,1.0,-999.0,43,-99.99,,,0.01,weatherlink.com 1.10,2013-02-14 23:15:00,
2013-02-14 16:30:00,34.6,18.0,30.52,SSW,204,0.0,-999.0,51,-99.99,,,0.01,weatherlink.com 1.10,2013-02-14 23:30:00,
2013-02-14 16:45:00,33.2,12.0,30.56,SSW,204,0.0,-999.0,42,-99.99,,,0.01,weatherlink.com 1.10,2013-02-14 23:45:00,
2013-02-14 17:00:00,32.5,16.0,30.56,SSW,204,0.0,-999.0,52,-99.99,,,0.01,weatherlink.com 1.10,2013-02-15 00:00:00,
2013-02-14 17:15:00,32.1,15.0,30.58,SSW,204,1.0,-999.0,49,-99.99,,,0.01,weatherlink.com 1.10,2013-02-15 00:15:00,
2013-02-14 17:30:00,32.9,7.0,30.59,SSW,213,1.0,-999.0,33,-99.99,,,0.01,weatherlink.com 1.10,2013-02-15 00:30:00,
2013-02-14 17:45:00,32.7,7.0,30.59,SSW,213,1.0,-999.0,34,-99.99,,,0.01,weatherlink.com 1.10,2013-02-15 00:45:00,
2013-02-14 17:59:00,31.8,6.0,30.60,SSW,213,0.0,-999.0,33,-99.99,,,0.01,weatherlink.com 1.10,2013-02-15 00:59:00,
2013-02-14 18:14:00,29.7,13.0,30.62,SSW,213,0.0,-999.0,51,-99.99,,,0.01,weatherlink.com 1.10,2013-02-15 01:14:00,
2013-02-14 18:29:00,28.4,14.0,30.66,SSW,213,0.0,-999.0,56,-99.99,,,0.01,weatherlink.com 1.10,2013-02-15 01:29:00,
2013-02-14 18:45:00,30.7,5.0,30.67,WNW,285,2.0,-999.0,33,-99.99,,,0.01,weatherlink.com 1.10,2013-02-15 01:45:00,
2013-02-14 19:00:00,31.5,5.0,30.67,NW,321,1.0,-999.0,33,-99.99,,,0.01,weatherlink.com 1.10,2013-02-15 02:00:00,
2013-02-14 19:15:00,31.0,7.0,30.61,NW,320,2.0,-999.0,37,-99.99,,,0.01,weatherlink.com 1.10,2013-02-15 02:15:00,
2013-02-14 19:29:00,29.3,14.0,30.64,NW,319,0.0,-999.0,52,-99.99,,,0.01,weatherlink.com 1.10,2013-02-15 02:29:00,
2013-02-14 19:44:00,26.6,10.0,30.66,NW,319,0.0,-999.0,50,-99.99,,,0.01,weatherlink.com 1.10,2013-02-15 02:44:00,
2013-02-14 19:59:00,25.7,14.0,30.68,NW,319,0.0,-999.0,61,-99.99,,,0.01,weatherlink.com 1.10,2013-02-15 02:59:00,
2013-02-14 20:14:00,24.8,10.0,30.65,NW,319,0.0,-999.0,53,-99.99,,,0.01,weatherlink.com 1.10,2013-02-15 03:14:00,
2013-02-14 20:29:00,25.1,8.0,30.66,NW,319,1.0,-999.0,49,-99.99,,,0.01,weatherlink.com 1.10,2013-02-15 03:29:00,
2013-02-14 20:45:00,28.1,-1.0,30.66,WNW,293,0.0,-999.0,28,-99.99,,,0.01,weatherlink.com 1.10,2013-02-15 03:45:00,
2013-02-14 21:00:00,28.2,0.0,30.64,ENE,63,0.0,-999.0,30,-99.99,,,0.01,weatherlink.com 1.10,2013-02-15 04:00:00,
2013-02-14 21:14:00,28.5,0.0,30.59,NW,310,3.0,-999.0,29,-99.99,,,0.01,weatherlink.com 1.10,2013-02-15 04:14:00,
2013-02-14 21:29:00,28.7,1.0,30.59,North,350,0.0,-999.0,30,-99.99,,,0.01,weatherlink.com 1.10,2013-02-15 04:29:00,
2013-02-14 21:44:00,28.4,1.0,30.60,WNW,300,1.0,-999.0,30,-99.99,,,0.01,weatherlink.com 1.10,2013-02-15 04:44:00,
2013-02-14 21:59:00,28.2,1.0,30.60,NW,309,1.0,-999.0,31,-99.99,,,0.01,weatherlink.com 1.10,2013-02-15 04:59:00,
2013-02-14 22:14:00,27.6,3.0,30.59,NW,309,0.0,-999.0,34,-99.99,,,0.01,weatherlink.com 1.10,2013-02-15 05:14:00,
2013-02-14 22:30:00,25.8,7.0,30.60,NW,309,0.0,-999.0,44,-99.99,,,0.01,weatherlink.com 1.10,2013-02-15 05:30:00,
2013-02-14 22:44:00,24.2,7.0,30.61,NW,317,0.0,-999.0,47,-99.99,,,0.01,weatherlink.com 1.10,2013-02-15 05:44:00,
2013-02-14 22:59:00,22.1,10.0,30.63,NW,317,0.0,-999.0,59,-99.99,,,0.01,weatherlink.com 1.10,2013-02-15 05:59:00,
2013-02-14 23:14:00,22.1,6.0,30.62,NW,317,0.0,-999.0,50,-99.99,,,0.01,weatherlink.com 1.10,2013-02-15 06:14:00,
2013-02-14 23:30:00,22.1,6.0,30.62,NW,317,0.0,-999.0,50,-99.99,,,0.01,weatherlink.com 1.10,2013-02-15 06:30:00,
2013-02-14 23:44:00,21.6,4.0,30.62,NW,317,0.0,-999.0,46,-99.99,,,0.01,weatherlink.com 1.10,2013-02-15 06:44:00,
2013-02-14 23:59:00,20.5,7.0,30.62,NW,317,0.0,-999.0,57,-99.99,,,0.00,weatherlink.com 1.10,2013-02-15 06:59:00,